PILOTS ONLINE: 265    ATC ONLINE: 37

PANT

Annette Island Airport

Location

IATA ANN
City Annette
Country  United States
Latitude 55° 2' 32" N
Longitude 131° 34' 19" W
Elevation 119 ft
Type Medium Airport

Map

Weather

METAR
2014/08/31 05:53
PANT 310553Z AUTO 21004KT 10SM OVC060 13/12 A2983 RMK AO2 SLP102 60003 T01330117 10167 20133 53010 TSNO
TAF
No TAF available

Runways

02/20 5709 ft / 150 ft
12/30 7493 ft / 150 ft

Outbound flights

Callsign Flying to Pilot ATD/STD ETA Aircraft

Inbound flights

Callsign Flying from Pilot ATD ETA Aircraft